createdAt,value
2019-02-20T00:01:24.259Z,6.10
2019-02-20T00:03:52.487Z,5.80
2019-02-20T00:06:20.102Z,5.90
2019-02-20T00:08:48.253Z,5.90
2019-02-20T00:11:15.847Z,5.70
2019-02-20T00:13:43.476Z,5.90
2019-02-20T00:16:11.300Z,5.60
2019-02-20T00:18:39.199Z,5.80
2019-02-20T00:21:06.761Z,5.80
2019-02-20T00:23:34.718Z,5.70
2019-02-20T00:26:02.291Z,5.80
2019-02-20T00:28:30.571Z,5.60
2019-02-20T00:30:58.386Z,5.70
2019-02-20T00:33:26.132Z,5.80
2019-02-20T00:35:54.274Z,5.60
2019-02-20T00:38:22.171Z,5.40
2019-02-20T00:40:50.452Z,5.20
2019-02-20T00:43:19.005Z,5.50
2019-02-20T00:46:04.536Z,5.40
2019-02-20T00:48:41.189Z,5.50
2019-02-20T00:51:15.706Z,5.20
2019-02-20T00:53:50.800Z,5.00
2019-02-20T00:56:18.847Z,5.00
2019-02-20T00:58:46.491Z,5.20
2019-02-20T01:01:14.395Z,4.80
2019-02-20T01:03:42.293Z,4.80
2019-02-20T01:06:10.173Z,4.80
2019-02-20T01:08:38.053Z,4.50
2019-02-20T01:11:05.636Z,4.70
2019-02-20T01:13:33.566Z,4.40
2019-02-20T01:16:01.711Z,4.40
2019-02-20T01:18:29.843Z,4.30
2019-02-20T01:20:57.398Z,4.40
2019-02-20T01:23:25.491Z,4.50
2019-02-20T01:25:52.978Z,4.70
2019-02-20T01:28:20.534Z,4.60
2019-02-20T01:30:48.328Z,4.50
2019-02-20T01:33:16.609Z,4.40
2019-02-20T01:35:44.455Z,4.40
2019-02-20T01:38:11.953Z,4.40
2019-02-20T01:40:39.732Z,4.30
2019-02-20T01:43:07.247Z,4.60
2019-02-20T01:45:35.443Z,4.40
2019-02-20T01:48:02.970Z,4.40
2019-02-20T01:50:31.038Z,4.50
2019-02-20T01:52:58.606Z,4.50
2019-02-20T01:55:26.164Z,4.40
2019-02-20T01:57:53.670Z,4.40
2019-02-20T02:00:21.306Z,4.40
2019-02-20T02:02:49.489Z,4.50
2019-02-20T02:05:17.445Z,4.40
2019-02-20T02:07:45.027Z,4.50
2019-02-20T03:57:19.020Z,4.10
2019-02-20T03:59:46.906Z,4.20
2019-02-20T04:02:14.811Z,3.90
2019-02-20T04:04:42.418Z,4.30
2019-02-20T04:07:10.282Z,4.10
2019-02-20T04:09:38.526Z,4.10
2019-02-20T04:12:06.253Z,4.10
2019-02-20T04:14:33.895Z,4.10
2019-02-20T04:17:01.770Z,4.00
2019-02-20T04:19:31.361Z,3.90
2019-02-20T04:21:58.981Z,4.00
2019-02-20T04:24:27.817Z,3.70
2019-02-20T04:26:55.695Z,3.60
2019-02-20T04:29:23.853Z,3.50
2019-02-20T04:31:51.482Z,3.50
2019-02-20T04:34:19.058Z,3.60
2019-02-20T04:36:47.126Z,3.40
2019-02-20T04:39:14.634Z,3.40
2019-02-20T04:41:42.454Z,3.20
2019-02-20T04:44:09.974Z,3.30
2019-02-20T04:46:37.786Z,3.40
2019-02-20T04:49:06.380Z,3.20
2019-02-20T04:51:34.261Z,3.20
2019-02-20T04:54:01.842Z,2.70
2019-02-20T04:56:29.654Z,3.30
2019-02-20T04:58:59.166Z,3.30
2019-02-20T05:01:26.710Z,3.00
2019-02-20T05:03:54.919Z,2.60
2019-02-20T05:06:22.752Z,3.10
2019-02-20T05:08:51.155Z,3.00
2019-02-20T05:11:18.690Z,3.00
2019-02-20T05:13:46.540Z,2.80
2019-02-20T05:16:14.293Z,2.80
2019-02-20T05:18:41.936Z,2.90
2019-02-20T05:21:09.824Z,2.90
2019-02-20T05:23:38.063Z,3.00
2019-02-20T05:26:05.572Z,2.80
2019-02-20T05:28:33.454Z,3.10
2019-02-20T05:31:01.768Z,2.90
2019-02-20T05:33:29.394Z,3.10
2019-02-20T05:35:57.020Z,2.70
2019-02-20T05:38:25.019Z,2.80
2019-02-20T05:40:52.798Z,2.60
2019-02-20T05:43:20.883Z,2.60
2019-02-20T05:45:48.472Z,2.80
2019-02-20T05:48:16.349Z,2.70
2019-02-20T05:50:44.018Z,2.30
2019-02-20T05:53:12.264Z,2.60
2019-02-20T05:55:40.056Z,2.80
2019-02-20T05:58:07.828Z,2.70
2019-02-20T06:00:36.002Z,2.90
2019-02-20T06:03:05.005Z,3.00
2019-02-20T06:05:32.775Z,2.80
2019-02-20T06:08:00.595Z,3.00
2019-02-20T06:10:28.504Z,3.10
2019-02-20T06:12:56.683Z,2.90
2019-02-20T06:15:26.636Z,2.80
2019-02-20T06:17:54.478Z,2.80
2019-02-20T06:20:21.989Z,2.60
2019-02-20T06:22:49.864Z,2.80
2019-02-20T06:25:17.650Z,2.90
2019-02-20T06:27:45.286Z,2.80
2019-02-20T06:30:13.211Z,2.90
2019-02-20T06:32:41.709Z,2.60
2019-02-20T06:35:09.607Z,3.10
2019-02-20T06:37:37.054Z,3.00
2019-02-20T06:40:05.315Z,3.20
2019-02-20T06:42:33.874Z,3.10
2019-02-20T06:45:02.044Z,3.10
2019-02-20T06:47:29.994Z,3.00
2019-02-20T06:49:57.760Z,3.10
2019-02-20T06:52:25.643Z,3.10
2019-02-20T06:54:54.346Z,3.10
2019-02-20T06:57:22.173Z,3.20
2019-02-20T06:59:49.653Z,3.10
2019-02-20T07:02:17.874Z,3.00
2019-02-20T07:05:22.920Z,2.90
2019-02-20T07:08:18.599Z,3.20
2019-02-20T07:11:16.859Z,3.40
2019-02-20T07:13:58.714Z,3.50
2019-02-20T07:16:48.742Z,3.50
2019-02-20T07:19:41.601Z,3.80
2019-02-20T07:22:43.958Z,3.90
2019-02-20T07:25:24.215Z,4.10
2019-02-20T07:28:30.887Z,3.70
2019-02-20T07:30:58.902Z,3.90
2019-02-20T07:33:26.412Z,4.10
2019-02-20T07:35:54.110Z,4.20
2019-02-20T07:38:22.210Z,4.20
2019-02-20T07:40:52.227Z,4.20
2019-02-20T07:43:20.532Z,4.70
2019-02-20T07:45:49.269Z,4.70
2019-02-20T07:48:27.656Z,4.80
2019-02-20T07:50:55.944Z,5.20
2019-02-20T07:53:27.204Z,6.60
2019-02-20T07:55:55.375Z,8.50
2019-02-20T07:58:26.918Z,9.70
2019-02-20T08:00:55.494Z,10.30
2019-02-20T08:03:23.012Z,10.70
2019-02-20T08:05:50.505Z,11.60
2019-02-20T08:08:18.129Z,12.50
2019-02-20T08:10:46.258Z,13.20
2019-02-20T08:13:18.130Z,13.20
2019-02-20T08:15:46.042Z,13.60
2019-02-20T08:18:13.855Z,13.40
2019-02-20T08:20:42.158Z,13.70
2019-02-20T08:23:09.692Z,14.00
2019-02-20T08:25:37.278Z,14.20
2019-02-20T08:28:05.079Z,14.80
2019-02-20T08:30:33.054Z,14.70
2019-02-20T08:33:01.725Z,14.70
2019-02-20T08:35:29.913Z,15.10
2019-02-20T08:37:57.879Z,15.90
2019-02-20T08:40:26.055Z,17.20
2019-02-20T08:42:53.702Z,18.00
2019-02-20T08:45:21.304Z,17.90
2019-02-20T08:47:48.909Z,18.50
2019-02-20T08:50:16.919Z,18.40
2019-02-20T08:52:44.507Z,18.60
2019-02-20T08:55:12.113Z,18.20
2019-02-20T08:57:39.699Z,18.20
2019-02-20T09:00:10.044Z,18.00
2019-02-20T09:02:37.784Z,17.90
2019-02-20T09:05:06.359Z,18.70
2019-02-20T09:07:34.598Z,19.10
2019-02-20T09:10:02.169Z,18.80
2019-02-20T09:12:29.716Z,18.50
2019-02-20T09:14:58.170Z,18.20
2019-02-20T09:17:26.797Z,18.30
2019-02-20T09:19:54.683Z,18.10
2019-02-20T09:22:22.210Z,17.90
2019-02-20T09:24:50.354Z,18.60
2019-02-20T09:27:18.004Z,18.90
2019-02-20T09:29:46.490Z,19.90
2019-02-20T09:32:14.372Z,19.60
2019-02-20T09:34:42.601Z,19.10
2019-02-20T09:37:10.487Z,18.40
2019-02-20T09:39:38.134Z,18.30
2019-02-20T09:42:08.032Z,17.90
2019-02-20T09:44:38.940Z,18.30
2019-02-20T09:47:06.780Z,18.30
2019-02-20T09:49:34.374Z,18.30
2019-02-20T09:52:02.194Z,18.20
2019-02-20T09:54:29.798Z,17.80
2019-02-20T09:56:57.645Z,17.50
2019-02-20T09:59:25.259Z,17.10
2019-02-20T10:01:53.146Z,17.50
2019-02-20T10:04:20.744Z,17.70
2019-02-20T10:06:48.344Z,17.90
2019-02-20T10:09:16.517Z,18.30
2019-02-20T10:11:44.699Z,19.20
2019-02-20T10:14:12.494Z,18.80
2019-02-20T10:16:40.906Z,19.30
2019-02-20T10:19:08.970Z,18.80
2019-02-20T10:21:37.258Z,19.50
2019-02-20T10:24:04.998Z,19.70
2019-02-20T10:26:33.441Z,19.10
2019-02-20T10:29:01.007Z,18.20
2019-02-20T10:31:28.636Z,18.00
2019-02-20T10:33:56.534Z,18.30
2019-02-20T10:36:24.081Z,17.10
2019-02-20T10:38:52.092Z,15.90
2019-02-20T10:41:20.318Z,15.80
2019-02-20T10:43:48.595Z,15.40
2019-02-20T10:46:17.576Z,16.10
2019-02-20T10:48:45.675Z,16.50
2019-02-20T10:51:13.659Z,17.00
2019-02-20T10:53:41.418Z,17.60
2019-02-20T10:56:10.213Z,17.40
2019-02-20T10:58:38.921Z,17.90
2019-02-20T11:01:06.900Z,19.00
2019-02-20T11:03:34.707Z,18.60
2019-02-20T11:06:04.131Z,18.20
2019-02-20T11:08:31.734Z,19.10
2019-02-20T11:10:59.369Z,19.90
2019-02-20T11:13:26.998Z,19.20
2019-02-20T11:16:02.338Z,18.30
2019-02-20T11:18:30.903Z,19.00
2019-02-20T11:20:58.848Z,19.50
2019-02-20T11:23:26.606Z,19.60
2019-02-20T11:25:54.963Z,18.30
2019-02-20T11:28:27.006Z,18.80
2019-02-20T11:30:52.614Z,19.60
2019-02-20T11:33:20.172Z,19.90
2019-02-20T11:35:48.090Z,20.00
2019-02-20T11:38:16.010Z,19.60
2019-02-20T11:40:43.918Z,19.00
2019-02-20T11:43:12.126Z,19.00
2019-02-20T11:45:39.763Z,19.70
2019-02-20T11:48:07.581Z,20.20
2019-02-20T11:50:35.483Z,19.90
2019-02-20T11:53:03.226Z,19.70
2019-02-20T11:55:31.027Z,20.20
2019-02-20T11:58:00.998Z,19.60
2019-02-20T12:00:29.017Z,19.80
2019-02-20T12:02:56.659Z,20.60
2019-02-20T12:05:24.566Z,20.50
2019-02-20T12:07:52.720Z,20.40
2019-02-20T12:10:20.490Z,19.80
2019-02-20T12:12:48.010Z,20.10
2019-02-20T12:15:16.454Z,20.10
2019-02-20T12:17:44.180Z,19.70
2019-02-20T12:20:13.926Z,20.00
2019-02-20T12:22:41.455Z,20.50
2019-02-20T12:25:09.385Z,19.80
2019-02-20T12:27:37.262Z,20.10
2019-02-20T12:30:05.209Z,20.20
2019-02-20T12:32:33.151Z,20.40
2019-02-20T12:35:01.377Z,19.70
2019-02-20T12:37:28.957Z,19.80
2019-02-20T12:39:57.075Z,19.40
2019-02-20T12:42:24.796Z,19.80
2019-02-20T12:44:52.373Z,19.10
2019-02-20T12:47:20.461Z,19.30
2019-02-20T12:49:48.562Z,19.30
2019-02-20T12:52:16.146Z,20.30
2019-02-20T12:54:43.602Z,21.30
2019-02-20T12:57:11.499Z,21.60
2019-02-20T12:59:40.183Z,21.30
2019-02-20T13:02:07.972Z,21.70
2019-02-20T13:04:36.080Z,21.00
2019-02-20T13:07:04.344Z,20.10
2019-02-20T13:09:32.182Z,18.80
2019-02-20T13:12:00.142Z,19.00
2019-02-20T13:14:27.744Z,18.60
2019-02-20T13:16:55.376Z,18.00
2019-02-20T13:19:23.625Z,17.60
2019-02-20T13:21:52.323Z,17.20
2019-02-20T13:24:21.095Z,16.60
2019-02-20T13:26:52.775Z,16.60
2019-02-20T13:29:19.051Z,16.80
2019-02-20T13:31:46.700Z,17.00
2019-02-20T13:34:14.313Z,17.20
2019-02-20T13:36:41.945Z,16.90
2019-02-20T13:39:09.887Z,16.80
2019-02-20T13:41:37.780Z,16.70
2019-02-20T13:44:05.374Z,16.90
2019-02-20T13:46:33.819Z,16.60
2019-02-20T13:49:01.663Z,16.70
2019-02-20T13:51:29.785Z,16.30
2019-02-20T13:53:57.368Z,15.90
2019-02-20T13:56:25.300Z,16.30
2019-02-20T13:58:53.487Z,16.00
2019-02-20T14:01:21.938Z,15.30
2019-02-20T14:03:49.846Z,15.20
2019-02-20T14:06:17.821Z,14.70
2019-02-20T14:08:48.226Z,14.70
2019-02-20T14:11:16.071Z,14.80
2019-02-20T14:13:44.008Z,15.10
2019-02-20T14:16:11.980Z,14.90
2019-02-20T14:18:39.672Z,15.30
2019-02-20T14:21:08.074Z,15.10
2019-02-20T14:23:35.937Z,15.00
2019-02-20T14:26:04.053Z,15.30
2019-02-20T14:28:31.980Z,15.10
2019-02-20T14:30:59.749Z,15.00
2019-02-20T14:33:27.626Z,15.00
2019-02-20T14:35:55.255Z,15.20
2019-02-20T14:38:23.154Z,14.80
2019-02-20T14:40:50.978Z,15.10
2019-02-20T14:43:18.582Z,14.70
2019-02-20T14:45:46.170Z,14.70
2019-02-20T14:48:13.771Z,14.40
2019-02-20T14:50:41.651Z,14.80
2019-02-20T14:53:09.618Z,14.70
2019-02-20T14:55:37.511Z,14.70
2019-02-20T14:58:06.098Z,14.50
2019-02-20T15:00:34.036Z,14.30
2019-02-20T15:03:01.829Z,14.00
2019-02-20T15:05:30.524Z,14.10
2019-02-20T15:07:58.790Z,13.80
2019-02-20T15:10:26.382Z,13.90
2019-02-20T15:12:54.787Z,14.00
2019-02-20T15:15:22.366Z,13.50
2019-02-20T15:17:50.243Z,13.70
2019-02-20T15:20:18.146Z,13.60
2019-02-20T15:22:46.000Z,13.40
2019-02-20T15:25:14.196Z,13.50
2019-02-20T15:27:41.835Z,13.30
2019-02-20T15:30:12.395Z,13.10
2019-02-20T15:32:40.559Z,13.10
2019-02-20T15:35:09.174Z,13.10
2019-02-20T15:37:37.427Z,13.10
2019-02-20T15:40:05.376Z,13.00
2019-02-20T15:42:32.938Z,13.30
2019-02-20T15:45:00.564Z,13.20
2019-02-20T15:47:28.675Z,13.00
2019-02-20T15:49:56.226Z,12.90
2019-02-20T15:52:24.968Z,12.80
2019-02-20T15:54:52.764Z,12.30
2019-02-20T15:57:20.349Z,13.00
2019-02-20T15:59:47.922Z,12.90
2019-02-20T16:02:15.892Z,12.80
2019-02-20T16:04:43.447Z,13.00
2019-02-20T16:07:11.415Z,12.60
2019-02-20T16:09:39.011Z,12.80
2019-02-20T16:12:06.956Z,12.50
2019-02-20T16:14:34.959Z,13.00
2019-02-20T16:17:03.241Z,12.50
2019-02-20T16:19:31.092Z,12.60
2019-02-20T16:21:58.679Z,12.80
2019-02-20T16:24:26.256Z,12.40
2019-02-20T16:26:54.486Z,12.60
2019-02-20T16:29:22.726Z,12.70
2019-02-20T16:31:50.936Z,12.70
2019-02-20T16:34:21.674Z,12.60
2019-02-20T16:36:49.364Z,12.60
2019-02-20T16:39:17.251Z,12.50
2019-02-20T16:41:45.158Z,12.30
2019-02-20T16:44:13.338Z,12.40
2019-02-20T16:46:41.474Z,12.50
2019-02-20T16:49:09.022Z,12.20
2019-02-20T16:51:37.211Z,12.30
2019-02-20T16:54:05.124Z,12.30
2019-02-20T16:56:32.677Z,12.50
2019-02-20T16:59:00.570Z,12.20
2019-02-20T17:01:29.716Z,12.00
2019-02-20T17:03:57.895Z,12.20
2019-02-20T17:06:25.497Z,12.10
2019-02-20T17:08:53.404Z,12.10
2019-02-20T17:11:21.049Z,12.00
2019-02-20T17:13:48.972Z,11.90
2019-02-20T17:16:16.790Z,12.10
2019-02-20T17:18:44.627Z,12.10
2019-02-20T17:21:12.446Z,12.10
2019-02-20T17:23:40.706Z,11.90
2019-02-20T17:26:08.918Z,11.90
2019-02-20T17:28:36.580Z,11.80
2019-02-20T17:31:04.168Z,11.80
2019-02-20T17:33:32.328Z,11.70
2019-02-20T17:36:00.240Z,11.70
2019-02-20T17:38:28.146Z,11.70
2019-02-20T17:40:55.683Z,11.60
2019-02-20T17:43:23.680Z,11.60
2019-02-20T17:45:51.302Z,11.50
2019-02-20T17:48:19.237Z,11.50
2019-02-20T17:50:46.803Z,11.70
2019-02-20T17:53:14.948Z,11.50
2019-02-20T17:55:43.424Z,11.40
2019-02-20T17:58:15.247Z,11.60
2019-02-20T18:00:41.029Z,11.50
2019-02-20T18:03:08.606Z,11.00
2019-02-20T18:05:37.238Z,11.10
2019-02-20T18:08:04.967Z,11.20
2019-02-20T18:10:32.646Z,11.00
2019-02-20T18:13:00.499Z,11.30
2019-02-20T18:15:28.294Z,11.10
2019-02-20T18:17:56.157Z,11.10
2019-02-20T18:20:25.111Z,11.20
2019-02-20T18:22:53.350Z,11.10
2019-02-20T18:25:20.966Z,11.10
2019-02-20T18:27:49.114Z,11.10
2019-02-20T18:30:17.092Z,11.10
2019-02-20T18:32:45.287Z,11.00
2019-02-20T18:35:12.954Z,11.00
2019-02-20T18:37:40.923Z,11.10
2019-02-20T18:40:09.128Z,11.40
2019-02-20T18:42:37.395Z,11.20
2019-02-20T18:45:06.394Z,11.10
2019-02-20T18:47:35.148Z,10.90
2019-02-20T18:50:03.105Z,10.80
2019-02-20T18:52:30.692Z,10.80
2019-02-20T18:55:05.544Z,10.50
2019-02-20T18:57:27.960Z,10.60
2019-02-20T18:59:56.031Z,10.60
2019-02-20T19:02:23.616Z,10.40
2019-02-20T19:04:51.282Z,10.40
2019-02-20T19:07:19.026Z,10.40
2019-02-20T19:09:48.970Z,10.20
2019-02-20T19:12:31.537Z,10.20
2019-02-20T19:15:40.689Z,10.10
2019-02-20T19:18:42.320Z,10.10
2019-02-20T19:21:44.314Z,10.30
2019-02-20T19:24:49.408Z,10.20
2019-02-20T19:28:01.522Z,10.10
2019-02-20T19:31:09.010Z,10.10
2019-02-20T19:34:22.310Z,9.80
2019-02-20T19:37:38.095Z,10.00
2019-02-20T19:40:56.033Z,10.10
2019-02-20T19:43:46.912Z,9.90
2019-02-20T19:46:56.647Z,10.10
2019-02-20T19:50:02.630Z,10.10
2019-02-20T19:53:01.386Z,10.00
2019-02-20T19:55:54.909Z,9.80
2019-02-20T19:58:59.025Z,9.70
2019-02-20T20:02:11.251Z,9.70
2019-02-20T20:05:14.011Z,9.50
2019-02-20T20:07:56.028Z,9.30
2019-02-20T20:10:48.486Z,9.60
2019-02-20T20:13:59.411Z,9.50
2019-02-20T20:17:14.250Z,9.40
2019-02-20T20:20:12.551Z,9.20
2019-02-20T20:23:14.455Z,9.30
2019-02-20T20:26:13.913Z,9.40
2019-02-20T20:29:20.806Z,8.90
2019-02-20T20:32:30.543Z,9.20
2019-02-20T20:35:24.191Z,9.00
2019-02-20T20:38:36.859Z,8.90
2019-02-20T20:41:20.348Z,8.80
2019-02-20T20:44:12.899Z,8.80
2019-02-20T20:47:01.791Z,8.60
2019-02-20T20:49:53.576Z,8.70
2019-02-20T20:53:15.584Z,8.50
2019-02-20T20:56:17.011Z,8.80
2019-02-20T20:59:28.214Z,8.30
2019-02-20T21:02:13.224Z,8.40
2019-02-20T21:05:12.043Z,8.40
2019-02-20T21:08:16.192Z,8.30
2019-02-20T21:10:55.066Z,8.30
2019-02-20T21:14:04.608Z,8.40
2019-02-20T21:16:57.571Z,8.70
2019-02-20T21:19:49.410Z,8.30
2019-02-20T21:23:00.771Z,8.60
2019-02-20T21:26:05.051Z,8.50
2019-02-20T21:28:58.139Z,8.70
2019-02-20T21:32:13.392Z,8.50
2019-02-20T21:35:05.481Z,8.20
2019-02-20T21:38:23.510Z,8.20
2019-02-20T21:41:12.172Z,8.50
2019-02-20T21:44:04.075Z,7.80
2019-02-20T21:47:01.563Z,8.20
2019-02-20T21:49:58.171Z,8.10
2019-02-20T21:52:55.271Z,8.10
2019-02-20T21:55:50.248Z,8.20
2019-02-20T21:58:54.751Z,8.20
2019-02-20T22:01:38.006Z,8.20
2019-02-20T22:04:36.263Z,7.80
2019-02-20T22:07:41.383Z,7.60
2019-02-20T22:10:48.218Z,7.70
2019-02-20T22:13:46.827Z,7.60
2019-02-20T22:16:37.091Z,7.30
2019-02-20T22:19:27.258Z,7.10
2019-02-20T22:22:38.517Z,7.10
2019-02-20T22:25:49.795Z,7.10
2019-02-20T22:29:13.805Z,7.40
2019-02-20T22:32:11.254Z,7.20
2019-02-20T22:35:04.282Z,7.10
2019-02-20T22:38:26.290Z,7.10
2019-02-20T22:41:28.947Z,7.50
2019-02-20T22:44:56.846Z,7.10
2019-02-20T22:48:00.631Z,7.20
2019-02-20T22:51:23.819Z,7.50
2019-02-20T22:54:10.567Z,7.30
2019-02-20T22:57:09.015Z,7.10
2019-02-20T23:00:34.578Z,7.50
2019-02-20T23:03:26.674Z,7.20
2019-02-20T23:06:19.284Z,7.30
2019-02-20T23:09:30.275Z,7.40
2019-02-20T23:12:39.775Z,7.30
2019-02-20T23:15:07.653Z,6.90
2019-02-20T23:17:35.279Z,7.10
2019-02-20T23:20:03.280Z,7.10
2019-02-20T23:22:30.867Z,7.10
2019-02-20T23:24:58.448Z,7.00
2019-02-20T23:27:26.358Z,7.10
2019-02-20T23:29:54.220Z,7.20
2019-02-20T23:32:21.777Z,7.40
2019-02-20T23:34:49.668Z,7.30
2019-02-20T23:37:17.293Z,7.10
2019-02-20T23:39:44.952Z,7.20
2019-02-20T23:42:12.930Z,7.10
2019-02-20T23:44:40.846Z,7.30
2019-02-20T23:47:09.327Z,7.10
2019-02-20T23:49:36.905Z,7.00
2019-02-20T23:52:04.446Z,7.20
2019-02-20T23:54:32.280Z,7.10
2019-02-20T23:56:59.870Z,7.20
2019-02-20T23:59:27.415Z,7.20
